createdAt,value
2018-05-18T00:01:48.723Z,95246.12
2018-05-18T00:04:53.052Z,95238.71
2018-05-18T00:07:57.286Z,95235.58
2018-05-18T00:11:00.570Z,95230.89
2018-05-18T00:14:04.602Z,95238.20
2018-05-18T00:17:08.637Z,95242.67
2018-05-18T00:20:24.066Z,95239.08
2018-05-18T00:23:27.536Z,95246.66
2018-05-18T00:26:30.821Z,95246.25
2018-05-18T00:29:34.105Z,95246.75
2018-05-18T00:32:38.130Z,95247.33
2018-05-18T00:35:41.425Z,95243.55
2018-05-18T00:38:45.451Z,95236.67
2018-05-18T00:41:49.474Z,95242.88
2018-05-18T00:44:53.606Z,95236.85
2018-05-18T00:47:57.622Z,95236.34
2018-05-18T00:51:01.658Z,95231.55
2018-05-18T00:54:05.814Z,95231.63
2018-05-18T00:57:09.107Z,95233.47
2018-05-18T01:00:12.381Z,95237.28
2018-05-18T01:03:15.796Z,95235.37
2018-05-18T01:06:19.837Z,95235.73
2018-05-18T01:09:25.948Z,95238.30
2018-05-18T01:12:29.221Z,95231.75
2018-05-18T01:15:34.065Z,95239.58
2018-05-18T01:18:37.388Z,95231.14
2018-05-18T01:21:40.717Z,95233.01
2018-05-18T01:24:44.076Z,95233.55
2018-05-18T01:27:47.431Z,95230.58
2018-05-18T01:30:50.846Z,95232.01
2018-05-18T01:33:54.874Z,95232.81
2018-05-18T01:36:58.937Z,95234.53
2018-05-18T01:40:02.240Z,95228.63
2018-05-18T01:43:05.502Z,95227.53
2018-05-18T01:46:08.825Z,95229.56
2018-05-18T01:49:12.106Z,95225.17
2018-05-18T01:52:16.337Z,95226.80
2018-05-18T01:55:19.603Z,95226.95
2018-05-18T01:58:22.888Z,95232.56
2018-05-18T02:01:26.341Z,95233.30
2018-05-18T02:04:30.374Z,95231.94
2018-05-18T02:07:34.461Z,95232.17
2018-05-18T02:10:38.519Z,95232.84
2018-05-18T02:13:41.828Z,95233.80
2018-05-18T02:16:45.108Z,95234.23
2018-05-18T02:19:48.363Z,95231.70
2018-05-18T02:22:51.674Z,95238.98
2018-05-18T02:25:54.943Z,95235.34
2018-05-18T02:28:58.205Z,95237.78
2018-05-18T02:32:01.473Z,95233.53
2018-05-18T02:35:05.518Z,95236.77
2018-05-18T02:38:08.778Z,95236.58
2018-05-18T02:41:12.063Z,95238.14
2018-05-18T02:44:15.495Z,95231.90
2018-05-18T02:47:19.355Z,95225.17
2018-05-18T02:50:23.384Z,95230.37
2018-05-18T02:53:26.680Z,95233.22
2018-05-18T02:56:30.762Z,95224.87
2018-05-18T02:59:34.031Z,95230.37
2018-05-18T03:02:37.337Z,95231.82
2018-05-18T03:05:40.622Z,95232.52
2018-05-18T03:08:44.675Z,95231.97
2018-05-18T03:11:47.942Z,95234.28
2018-05-18T03:14:52.077Z,95234.55
2018-05-18T03:17:55.355Z,95237.44
2018-05-18T03:20:59.473Z,95237.84
2018-05-18T03:24:03.414Z,95234.45
2018-05-18T03:27:07.568Z,95242.09
2018-05-18T03:30:10.827Z,95240.73
2018-05-18T03:33:14.961Z,95246.23
2018-05-18T03:36:19.185Z,95247.23
2018-05-18T03:39:24.630Z,95243.91
2018-05-18T03:42:28.658Z,95241.62
2018-05-18T03:45:32.727Z,95244.23
2018-05-18T03:48:35.990Z,95243.75
2018-05-18T03:51:39.262Z,95239.47
2018-05-18T03:54:43.287Z,95243.98
2018-05-18T03:57:47.082Z,95243.63
2018-05-18T04:00:51.771Z,95242.07
2018-05-18T04:04:12.838Z,95249.97
2018-05-18T04:07:33.942Z,95254.81
2018-05-18T04:10:37.303Z,95252.72
2018-05-18T04:13:40.656Z,95260.36
2018-05-18T04:16:43.942Z,95262.03
2018-05-18T04:19:47.238Z,95265.97
2018-05-18T04:22:50.477Z,95265.09
2018-05-18T04:25:54.525Z,95263.08
2018-05-18T04:28:57.783Z,95258.75
2018-05-18T04:32:07.118Z,95260.86
2018-05-18T04:35:10.507Z,95267.34
2018-05-18T04:38:14.539Z,95263.55
2018-05-18T04:41:17.810Z,95269.27
2018-05-18T04:44:21.844Z,95266.16
2018-05-18T04:47:25.628Z,95265.59
2018-05-18T04:50:28.886Z,95271.85
2018-05-18T04:53:33.478Z,95272.63
2018-05-18T04:56:37.521Z,95277.37
2018-05-18T04:59:40.849Z,95275.19
2018-05-18T05:02:44.118Z,95278.34
2018-05-18T05:05:47.434Z,95278.80
2018-05-18T05:08:50.694Z,95279.05
2018-05-18T05:11:53.990Z,95277.06
2018-05-18T05:14:57.268Z,95272.30
2018-05-18T05:18:00.577Z,95274.44
2018-05-18T05:21:04.572Z,95274.21
2018-05-18T05:24:07.893Z,95276.34
2018-05-18T05:27:11.170Z,95274.70
2018-05-18T05:30:14.500Z,95276.27
2018-05-18T05:33:17.761Z,95278.47
2018-05-18T05:36:21.255Z,95284.09
2018-05-18T05:39:24.519Z,95290.06
2018-05-18T05:42:33.644Z,95293.16
2018-05-18T05:45:38.113Z,95286.95
2018-05-18T05:48:43.359Z,95290.44
2018-05-18T05:51:49.744Z,95286.44
2018-05-18T05:54:53.511Z,95289.91
2018-05-18T05:57:59.833Z,95293.52
2018-05-18T06:01:03.116Z,95289.11
2018-05-18T06:04:06.451Z,95292.41
2018-05-18T06:07:09.737Z,95293.42
2018-05-18T06:10:13.054Z,95300.41
2018-05-18T06:13:17.170Z,95296.69
2018-05-18T06:16:20.560Z,95298.14
2018-05-18T06:19:24.595Z,95296.52
2018-05-18T06:22:28.662Z,95292.44
2018-05-18T06:25:31.939Z,95288.23
2018-05-18T06:28:35.231Z,95288.72
2018-05-18T06:31:38.501Z,95290.20
2018-05-18T06:34:41.806Z,95300.36
2018-05-18T06:37:45.872Z,95298.47
2018-05-18T06:40:49.129Z,95297.48
2018-05-18T06:43:52.426Z,95299.03
2018-05-18T06:46:55.811Z,95305.95
2018-05-18T06:49:59.731Z,95300.48
2018-05-18T06:53:03.771Z,95303.94
2018-05-18T06:56:07.803Z,95307.42
2018-05-18T06:59:11.079Z,95309.05
2018-05-18T07:02:14.361Z,95315.96
2018-05-18T07:05:17.661Z,95311.52
2018-05-18T07:08:20.927Z,95313.53
2018-05-18T07:11:24.959Z,95312.84
2018-05-18T07:14:29.032Z,95312.16
2018-05-18T07:17:32.379Z,95316.48
2018-05-18T07:20:36.400Z,95319.47
2018-05-18T07:23:39.720Z,95319.77
2018-05-18T07:26:43.749Z,95317.60
2018-05-18T07:29:47.043Z,95317.22
2018-05-18T07:32:50.359Z,95321.52
2018-05-18T07:35:53.590Z,95317.92
2018-05-18T07:38:56.856Z,95319.25
2018-05-18T07:42:00.902Z,95313.92
2018-05-18T07:45:04.166Z,95318.66
2018-05-18T07:48:07.485Z,95315.83
2018-05-18T07:51:10.745Z,95315.91
2018-05-18T07:54:14.030Z,95308.94
2018-05-18T07:57:17.326Z,95316.78
2018-05-18T08:00:20.583Z,95314.11
2018-05-18T08:03:23.853Z,95313.48
2018-05-18T08:06:27.117Z,95315.17
2018-05-18T08:09:30.393Z,95317.68
2018-05-18T08:12:33.658Z,95313.90
2018-05-18T08:15:36.917Z,95316.84
2018-05-18T08:18:41.012Z,95317.84
2018-05-18T08:21:44.273Z,95320.58
2018-05-18T08:24:47.555Z,95313.30
2018-05-18T08:27:51.922Z,95310.47
2018-05-18T08:31:07.937Z,95313.66
2018-05-18T08:34:11.210Z,95311.06
2018-05-18T08:37:15.242Z,95310.03
2018-05-18T08:40:18.509Z,95315.88
2018-05-18T08:43:22.617Z,95311.16
2018-05-18T08:46:25.886Z,95317.72
2018-05-18T08:49:29.790Z,95313.09
2018-05-18T08:52:34.485Z,95309.72
2018-05-18T08:55:37.737Z,95316.62
2018-05-18T08:58:41.006Z,95312.78
2018-05-18T09:01:44.263Z,95314.66
2018-05-18T09:04:47.578Z,95317.12
2018-05-18T09:07:50.861Z,95312.08
2018-05-18T09:10:54.119Z,95307.42
2018-05-18T09:13:57.448Z,95320.48
2018-05-18T09:17:01.482Z,95318.45
2018-05-18T09:20:05.518Z,95316.65
2018-05-18T09:23:09.550Z,95320.05
2018-05-18T09:26:13.575Z,95323.41
2018-05-18T09:29:17.637Z,95318.32
2018-05-18T09:32:20.902Z,95324.61
2018-05-18T09:35:24.163Z,95321.27
2018-05-18T09:38:27.460Z,95316.48
2018-05-18T09:41:30.724Z,95327.48
2018-05-18T09:44:33.996Z,95323.17
2018-05-18T09:47:37.283Z,95322.39
2018-05-18T09:50:40.574Z,95318.88
2018-05-18T09:53:43.858Z,95315.86
2018-05-18T09:56:47.115Z,95309.36
2018-05-18T09:59:51.146Z,95306.36
2018-05-18T10:02:56.074Z,95308.57
2018-05-18T10:05:59.352Z,95307.79
2018-05-18T10:09:02.675Z,95306.67
2018-05-18T10:12:05.991Z,95302.51
2018-05-18T10:15:09.456Z,95302.47
2018-05-18T10:18:12.747Z,95302.67
2018-05-18T10:21:16.863Z,95299.40
2018-05-18T10:24:20.134Z,95296.52
2018-05-18T10:27:23.505Z,95287.20
2018-05-18T10:30:32.624Z,95297.28
2018-05-18T10:33:36.671Z,95292.34
2018-05-18T10:36:39.948Z,95294.62
2018-05-18T10:39:44.178Z,95281.93
2018-05-18T10:42:47.467Z,95278.39
2018-05-18T10:45:52.355Z,95280.82
2018-05-18T10:48:55.625Z,95278.19
2018-05-18T10:51:58.902Z,95276.86
2018-05-18T10:55:02.317Z,95273.04
2018-05-18T10:58:05.596Z,95283.14
2018-05-18T11:01:08.941Z,95277.44
2018-05-18T11:04:12.419Z,95277.71
2018-05-18T11:07:15.795Z,95274.08
2018-05-18T11:10:19.206Z,95270.19
2018-05-18T11:13:23.359Z,95264.08
2018-05-18T11:16:26.639Z,95263.05
2018-05-18T11:19:29.897Z,95258.60
2018-05-18T11:22:34.639Z,95256.50
2018-05-18T11:25:37.921Z,95252.53
2018-05-18T11:28:41.961Z,95251.21
2018-05-18T11:31:45.479Z,95250.42
2018-05-18T11:34:49.367Z,95251.55
2018-05-18T11:37:54.103Z,95245.59
2018-05-18T11:40:57.492Z,95241.61
2018-05-18T11:44:00.827Z,95233.03
2018-05-18T11:47:07.866Z,95236.34
2018-05-18T11:50:11.181Z,95231.77
2018-05-18T11:53:16.667Z,95229.91
2018-05-18T11:56:19.953Z,95228.14
2018-05-18T11:59:23.240Z,95214.78
2018-05-18T12:02:26.519Z,95223.36
2018-05-18T12:05:29.778Z,95219.03
2018-05-18T12:08:33.065Z,95223.52
2018-05-18T12:11:36.376Z,95216.98
2018-05-18T12:14:39.656Z,95210.52
2018-05-18T12:17:42.981Z,95208.91
2018-05-18T12:20:46.360Z,95207.14
2018-05-18T12:23:49.667Z,95202.03
2018-05-18T12:26:52.979Z,95198.50
2018-05-18T12:29:57.023Z,95196.91
2018-05-18T12:33:00.283Z,95202.69
2018-05-18T12:36:03.671Z,95201.58
2018-05-18T12:39:06.968Z,95196.58
2018-05-18T12:42:12.357Z,95193.14
2018-05-18T12:45:18.504Z,95199.34
2018-05-18T12:48:22.157Z,95202.56
2018-05-18T12:51:25.523Z,95194.23
2018-05-18T12:54:30.266Z,95190.29
2018-05-18T12:57:34.462Z,95188.27
2018-05-18T13:00:38.567Z,95187.34
2018-05-18T13:03:41.818Z,95181.25
2018-05-18T13:06:49.435Z,95178.36
2018-05-18T13:09:53.512Z,95176.24
2018-05-18T13:12:57.348Z,95176.00
2018-05-18T13:16:00.926Z,95170.86
2018-05-18T13:19:06.083Z,95165.16
2018-05-18T13:22:09.659Z,95164.73
2018-05-18T13:25:13.686Z,95162.02
2018-05-18T13:28:17.454Z,95162.90
2018-05-18T13:31:20.930Z,95163.55
2018-05-18T13:34:24.926Z,95156.40
2018-05-18T13:37:28.958Z,95146.11
2018-05-18T13:40:33.037Z,95150.73
2018-05-18T13:43:36.382Z,95148.17
2018-05-18T13:46:40.414Z,95142.62
2018-05-18T13:49:45.321Z,95136.87
2018-05-18T13:52:49.345Z,95134.16
2018-05-18T13:55:53.401Z,95135.55
2018-05-18T13:58:57.445Z,95131.88
2018-05-18T14:02:00.857Z,95128.23
2018-05-18T14:05:04.976Z,95130.37
2018-05-18T14:08:09.734Z,95131.90
2018-05-18T14:11:13.009Z,95126.47
2018-05-18T14:14:17.079Z,95128.23
2018-05-18T14:17:20.334Z,95129.63
2018-05-18T14:20:23.596Z,95127.30
2018-05-18T14:23:27.813Z,95125.33
2018-05-18T14:26:31.226Z,95117.61
2018-05-18T14:29:35.202Z,95121.03
2018-05-18T14:32:39.466Z,95120.42
2018-05-18T14:35:43.621Z,95107.63
2018-05-18T14:38:48.399Z,95106.66
2018-05-18T14:41:53.192Z,95115.33
2018-05-18T14:44:57.183Z,95110.27
2018-05-18T14:48:00.551Z,95110.52
2018-05-18T14:51:06.740Z,95108.53
2018-05-18T14:54:10.098Z,95108.00
2018-05-18T14:57:14.129Z,95102.78
2018-05-18T15:00:17.408Z,95096.19
2018-05-18T15:03:20.664Z,95089.10
2018-05-18T15:06:23.947Z,95101.83
2018-05-18T15:09:27.291Z,95099.35
2018-05-18T15:12:30.548Z,95095.48
2018-05-18T15:15:33.816Z,95099.34
2018-05-18T15:18:37.866Z,95100.72
2018-05-18T15:21:41.989Z,95096.84
2018-05-18T15:24:46.116Z,95094.35
2018-05-18T15:27:50.150Z,95090.11
2018-05-18T15:30:53.965Z,95091.65
2018-05-18T15:33:58.161Z,95092.59
2018-05-18T15:37:01.466Z,95090.88
2018-05-18T15:40:04.827Z,95100.51
2018-05-18T15:43:08.093Z,95102.08
2018-05-18T15:46:11.391Z,95105.70
2018-05-18T15:49:14.771Z,95103.21
2018-05-18T15:52:18.753Z,95115.59
2018-05-18T15:55:22.836Z,95115.25
2018-05-18T15:58:26.105Z,95120.56
2018-05-18T16:01:29.365Z,95120.12
2018-05-18T16:04:32.729Z,95115.54
2018-05-18T16:07:35.994Z,95115.53
2018-05-18T16:10:40.023Z,95113.58
2018-05-18T16:13:44.155Z,95114.51
2018-05-18T16:16:48.211Z,95116.77
2018-05-18T16:19:51.577Z,95112.69
2018-05-18T16:22:54.845Z,95117.94
2018-05-18T16:25:58.220Z,95110.28
2018-05-18T16:29:01.470Z,95112.55
2018-05-18T16:32:04.744Z,95115.35
2018-05-18T16:35:08.122Z,95120.42
2018-05-18T16:38:12.833Z,95114.54
2018-05-18T16:41:16.687Z,95115.37
2018-05-18T16:44:21.562Z,95111.26
2018-05-18T16:47:25.694Z,95118.02
2018-05-18T16:50:29.062Z,95123.53
2018-05-18T16:53:33.598Z,95121.36
2018-05-18T16:56:38.173Z,95121.51
2018-05-18T16:59:41.500Z,95123.52
2018-05-18T17:02:45.497Z,95128.62
2018-05-18T17:05:49.591Z,95123.81
2018-05-18T17:08:52.885Z,95117.20
2018-05-18T17:11:56.278Z,95111.98
2018-05-18T17:15:26.673Z,95119.41
2018-05-18T17:18:44.133Z,95119.81
2018-05-18T17:21:50.175Z,95113.70
2018-05-18T17:24:54.235Z,95119.39
2018-05-18T17:27:57.532Z,95111.57
2018-05-18T17:31:00.822Z,95108.61
2018-05-18T17:34:04.165Z,95109.93
2018-05-18T17:37:07.438Z,95109.81
2018-05-18T17:40:10.906Z,95111.59
2018-05-18T17:43:15.094Z,95113.47
2018-05-18T17:46:18.394Z,95116.47
2018-05-18T17:49:22.514Z,95113.39
2018-05-18T17:52:26.562Z,95118.38
2018-05-18T17:55:32.211Z,95110.22
2018-05-18T17:58:35.474Z,95110.47
2018-05-18T18:01:38.973Z,95111.34
2018-05-18T18:04:42.299Z,95116.72
2018-05-18T18:07:45.618Z,95121.22
2018-05-18T18:10:49.060Z,95112.70
2018-05-18T18:13:52.326Z,95116.41
2018-05-18T18:16:55.686Z,95124.53
2018-05-18T18:20:00.027Z,95120.33
2018-05-18T18:23:04.078Z,95126.98
2018-05-18T18:26:07.509Z,95132.52
2018-05-18T18:29:12.323Z,95132.34
2018-05-18T18:32:15.620Z,95135.93
2018-05-18T18:35:18.878Z,95144.34
2018-05-18T18:38:22.279Z,95145.22
2018-05-18T18:41:25.565Z,95146.78
2018-05-18T18:44:28.899Z,95146.00
2018-05-18T18:47:32.202Z,95154.33
2018-05-18T18:50:35.475Z,95150.98
2018-05-18T18:53:38.730Z,95162.83
2018-05-18T18:56:42.040Z,95164.08
2018-05-18T18:59:45.308Z,95162.22
2018-05-18T19:02:48.750Z,95164.22
2018-05-18T19:05:52.074Z,95165.45
2018-05-18T19:08:56.149Z,95163.62
2018-05-18T19:11:59.417Z,95165.81
2018-05-18T19:15:02.741Z,95170.47
2018-05-18T19:18:06.772Z,95174.31
2018-05-18T19:21:10.801Z,95179.41
2018-05-18T19:24:14.978Z,95172.58
2018-05-18T19:27:18.950Z,95170.78
2018-05-18T19:30:23.355Z,95171.34
2018-05-18T19:33:27.842Z,95174.77
2018-05-18T19:36:31.254Z,95174.65
2018-05-18T19:39:34.510Z,95170.09
2018-05-18T19:42:40.023Z,95178.93
2018-05-18T19:45:43.309Z,95190.31
2018-05-18T19:48:47.438Z,95186.20
2018-05-18T19:51:51.473Z,95191.18
2018-05-18T19:54:54.751Z,95195.84
2018-05-18T19:57:58.115Z,95195.79
2018-05-18T20:01:01.365Z,95195.45
2018-05-18T20:04:04.724Z,95199.65
2018-05-18T20:07:08.014Z,95199.05
2018-05-18T20:10:12.434Z,95200.38
2018-05-18T20:13:15.904Z,95202.48
2018-05-18T20:16:19.199Z,95198.77
2018-05-18T20:19:22.464Z,95206.35
2018-05-18T20:22:26.592Z,95206.71
2018-05-18T20:25:32.238Z,95209.32
2018-05-18T20:28:37.948Z,95217.13
2018-05-18T20:31:43.331Z,95214.64
2018-05-18T20:34:48.563Z,95216.83
2018-05-18T20:37:51.829Z,95226.86
2018-05-18T20:40:55.124Z,95213.65
2018-05-18T20:43:58.640Z,95216.03
2018-05-18T20:47:01.905Z,95210.98
2018-05-18T20:50:05.169Z,95216.13
2018-05-18T20:53:08.469Z,95220.60
2018-05-18T20:56:11.721Z,95217.84
2018-05-18T20:59:15.011Z,95218.44
2018-05-18T21:02:46.573Z,95230.34
2018-05-18T21:05:53.046Z,95232.05
2018-05-18T21:08:57.104Z,95229.44
2018-05-18T21:12:00.367Z,95231.31
2018-05-18T21:15:04.390Z,95226.34
2018-05-18T21:18:08.437Z,95227.57
2018-05-18T21:21:15.926Z,95233.94
2018-05-18T21:24:19.349Z,95229.56
2018-05-18T21:27:22.759Z,95228.86
2018-05-18T21:30:26.050Z,95228.06
2018-05-18T21:33:29.294Z,95230.07
2018-05-18T21:36:32.597Z,95227.70
2018-05-18T21:39:36.434Z,95231.27
2018-05-18T21:42:39.791Z,95235.95
2018-05-18T21:45:43.826Z,95239.98
2018-05-18T21:48:47.124Z,95240.59
2018-05-18T21:51:50.435Z,95240.31
2018-05-18T21:54:53.757Z,95235.34
2018-05-18T21:57:57.018Z,95237.67
2018-05-18T22:01:01.034Z,95236.23
2018-05-18T22:04:05.064Z,95240.48
2018-05-18T22:07:09.093Z,95247.05
2018-05-18T22:10:12.386Z,95260.77
2018-05-18T22:13:16.420Z,95264.09
2018-05-18T22:16:19.714Z,95259.26
2018-05-18T22:19:22.991Z,95265.09
2018-05-18T22:22:26.254Z,95265.13
2018-05-18T22:25:29.505Z,95265.07
2018-05-18T22:28:32.826Z,95255.52
2018-05-18T22:31:36.845Z,95254.03
2018-05-18T22:34:40.106Z,95251.07
2018-05-18T22:37:43.405Z,95251.48
2018-05-18T22:40:46.659Z,95251.08
2018-05-18T22:43:50.006Z,95247.47
2018-05-18T22:46:54.036Z,95240.97
2018-05-18T22:49:58.181Z,95240.58
2018-05-18T22:53:02.501Z,95232.09
2018-05-18T22:56:05.763Z,95230.69
2018-05-18T22:59:09.019Z,95239.20
2018-05-18T23:02:12.324Z,95235.69
2018-05-18T23:05:15.626Z,95233.88
2018-05-18T23:08:18.892Z,95230.14
2018-05-18T23:11:22.142Z,95222.52
2018-05-18T23:14:26.103Z,95225.99
2018-05-18T23:17:30.126Z,95217.14
2018-05-18T23:20:35.049Z,95218.73
2018-05-18T23:23:38.365Z,95220.45
2018-05-18T23:26:42.498Z,95220.06
2018-05-18T23:29:45.910Z,95216.78
2018-05-18T23:32:49.170Z,95217.74
2018-05-18T23:35:52.426Z,95214.92
2018-05-18T23:38:55.693Z,95210.52
2018-05-18T23:41:59.006Z,95201.63
2018-05-18T23:45:03.137Z,95204.20
2018-05-18T23:48:07.181Z,95200.02
2018-05-18T23:51:10.431Z,95199.27
2018-05-18T23:54:13.770Z,95197.91
2018-05-18T23:57:17.792Z,95189.00
